createdAt,value
2017-06-11T00:01:10.995Z,73.70
2017-06-11T00:03:39.935Z,74.50
2017-06-11T00:06:08.085Z,74.40
2017-06-11T00:08:36.256Z,74.40
2017-06-11T00:11:05.200Z,74.70
2017-06-11T00:13:33.392Z,75.30
2017-06-11T00:16:01.547Z,76.30
2017-06-11T00:18:29.755Z,76.50
2017-06-11T00:20:57.915Z,76.60
2017-06-11T00:23:26.077Z,76.60
2017-06-11T00:25:54.316Z,76.50
2017-06-11T00:28:22.488Z,76.60
2017-06-11T00:30:50.657Z,76.70
2017-06-11T00:33:18.848Z,76.60
2017-06-11T00:35:46.994Z,76.70
2017-06-11T00:38:15.161Z,76.60
2017-06-11T00:40:43.374Z,76.70
2017-06-11T00:43:11.529Z,76.70
2017-06-11T00:45:39.704Z,76.70
2017-06-11T00:48:07.907Z,76.50
2017-06-11T00:50:36.072Z,76.70
2017-06-11T00:53:04.265Z,76.40
2017-06-11T00:55:32.464Z,76.10
2017-06-11T00:58:01.386Z,77.10
2017-06-11T01:00:29.533Z,76.30
2017-06-11T01:02:58.481Z,77.00
2017-06-11T01:05:26.652Z,76.90
2017-06-11T01:07:54.816Z,77.10
2017-06-11T01:10:23.028Z,76.80
2017-06-11T01:12:51.204Z,76.90
2017-06-11T01:15:19.380Z,76.90
2017-06-11T01:17:47.554Z,76.90
2017-06-11T01:20:15.752Z,77.10
2017-06-11T01:22:44.685Z,77.90
2017-06-11T01:25:12.901Z,77.80
2017-06-11T01:27:41.056Z,78.00
2017-06-11T01:30:09.246Z,78.10
2017-06-11T01:32:37.545Z,78.40
2017-06-11T01:35:06.492Z,79.00
2017-06-11T01:37:34.680Z,79.00
2017-06-11T01:40:02.894Z,79.10
2017-06-11T01:42:31.832Z,79.70
2017-06-11T01:45:00.005Z,79.50
2017-06-11T01:47:28.207Z,80.00
2017-06-11T01:49:56.379Z,80.10
2017-06-11T01:52:24.549Z,80.60
2017-06-11T01:54:52.740Z,80.50
2017-06-11T01:57:20.890Z,80.70
2017-06-11T01:59:49.039Z,81.00
2017-06-11T02:02:17.355Z,80.80
2017-06-11T02:04:45.510Z,80.90
2017-06-11T02:07:13.661Z,81.10
2017-06-11T02:09:41.854Z,80.70
2017-06-11T02:12:10.006Z,80.50
2017-06-11T02:14:38.178Z,80.30
2017-06-11T02:17:06.361Z,80.50
2017-06-11T02:19:34.510Z,80.50
2017-06-11T02:22:03.425Z,80.60
2017-06-11T02:24:31.611Z,80.60
2017-06-11T02:26:59.767Z,80.70
2017-06-11T02:29:27.956Z,80.40
2017-06-11T02:31:56.153Z,80.30
2017-06-11T02:34:24.329Z,80.10
2017-06-11T02:36:52.493Z,79.90
2017-06-11T02:39:20.701Z,79.90
2017-06-11T02:41:48.849Z,80.10
2017-06-11T02:44:17.010Z,80.40
2017-06-11T02:46:45.980Z,80.60
2017-06-11T02:49:14.149Z,80.40
2017-06-11T02:51:42.321Z,80.50
2017-06-11T02:54:10.502Z,81.10
2017-06-11T02:56:38.668Z,81.20
2017-06-11T02:59:06.822Z,81.00
2017-06-11T03:01:34.998Z,80.70
2017-06-11T03:04:03.161Z,80.80
2017-06-11T03:06:31.789Z,80.70
2017-06-11T03:08:59.989Z,79.80
2017-06-11T03:11:28.907Z,80.30
2017-06-11T03:13:57.080Z,80.30
2017-06-11T03:16:25.286Z,80.40
2017-06-11T03:18:53.452Z,80.20
2017-06-11T03:21:21.624Z,80.50
2017-06-11T03:23:49.817Z,80.20
2017-06-11T03:26:17.988Z,79.80
2017-06-11T03:28:46.158Z,79.30
2017-06-11T03:31:14.335Z,79.20
2017-06-11T03:33:42.486Z,79.10
2017-06-11T03:36:10.637Z,78.80
2017-06-11T03:38:38.835Z,78.60
2017-06-11T03:41:06.986Z,78.60
2017-06-11T03:43:35.146Z,78.60
2017-06-11T03:46:04.106Z,78.60
2017-06-11T03:48:32.249Z,78.60
2017-06-11T03:51:00.416Z,78.50
2017-06-11T03:53:28.611Z,78.70
2017-06-11T03:55:56.776Z,78.80
2017-06-11T03:58:24.922Z,78.60
2017-06-11T04:00:53.861Z,79.30
2017-06-11T04:03:22.030Z,79.20
2017-06-11T04:05:50.183Z,78.80
2017-06-11T04:08:18.358Z,78.60
2017-06-11T04:10:46.504Z,78.10
2017-06-11T04:13:15.441Z,78.30
2017-06-11T04:15:43.633Z,78.30
2017-06-11T04:18:11.804Z,77.70
2017-06-11T04:20:39.984Z,77.40
2017-06-11T04:23:08.189Z,76.80
2017-06-11T04:25:37.109Z,75.80
2017-06-11T04:28:05.262Z,75.70
2017-06-11T04:30:34.230Z,76.10
2017-06-11T04:33:02.406Z,76.00
2017-06-11T04:35:30.579Z,75.60
2017-06-11T04:37:58.757Z,75.10
2017-06-11T04:40:26.934Z,74.50
2017-06-11T04:42:55.101Z,74.40
2017-06-11T04:45:23.678Z,74.90
2017-06-11T04:47:51.851Z,75.00
2017-06-11T04:50:20.022Z,74.80
2017-06-11T04:52:48.213Z,73.90
2017-06-11T04:55:16.362Z,73.50
2017-06-11T04:57:44.505Z,73.10
2017-06-11T05:00:12.680Z,72.50
2017-06-11T05:02:40.843Z,72.70
2017-06-11T05:05:09.009Z,72.10
2017-06-11T05:07:37.966Z,70.90
2017-06-11T05:10:06.115Z,70.90
2017-06-11T05:12:34.283Z,70.90
2017-06-11T05:15:02.776Z,69.50
2017-06-11T05:17:30.940Z,69.60
2017-06-11T05:19:59.104Z,68.80
2017-06-11T05:22:27.279Z,68.40
2017-06-11T05:24:55.441Z,67.80
2017-06-11T05:27:23.604Z,68.20
2017-06-11T05:29:52.542Z,67.40
2017-06-11T05:32:20.694Z,67.40
2017-06-11T05:34:48.841Z,67.20
2017-06-11T05:37:17.913Z,66.50
2017-06-11T05:39:46.057Z,66.40
2017-06-11T05:42:14.335Z,65.90
2017-06-11T05:44:42.509Z,65.50
2017-06-11T05:47:10.659Z,65.00
2017-06-11T05:49:38.824Z,63.40
2017-06-11T05:52:07.022Z,62.70
2017-06-11T05:54:35.191Z,62.50
2017-06-11T05:57:03.352Z,62.20
2017-06-11T05:59:31.544Z,61.60
2017-06-11T06:01:59.686Z,61.30
2017-06-11T06:04:28.619Z,61.30
2017-06-11T06:06:56.792Z,61.20
2017-06-11T06:09:24.939Z,60.50
2017-06-11T06:11:53.101Z,59.80
2017-06-11T06:14:22.090Z,59.10
2017-06-11T06:16:51.016Z,59.50
2017-06-11T06:19:19.176Z,59.50
2017-06-11T06:21:47.360Z,59.40
2017-06-11T06:24:15.524Z,59.60
2017-06-11T06:26:43.673Z,59.50
2017-06-11T06:29:12.619Z,58.90
2017-06-11T06:31:40.780Z,59.30
2017-06-11T06:34:08.943Z,60.80
2017-06-11T06:36:37.133Z,59.70
2017-06-11T06:39:05.298Z,59.40
2017-06-11T06:41:33.456Z,59.60
2017-06-11T06:44:01.640Z,59.00
2017-06-11T06:46:29.790Z,59.20
2017-06-11T06:48:58.790Z,58.60
2017-06-11T06:51:27.756Z,58.10
2017-06-11T06:53:55.913Z,58.10
2017-06-11T06:56:24.099Z,57.90
2017-06-11T06:58:52.293Z,58.00
2017-06-11T07:01:20.465Z,58.00
2017-06-11T07:03:48.629Z,57.80
2017-06-11T07:06:16.810Z,57.50
2017-06-11T07:08:44.965Z,57.80
2017-06-11T07:11:13.147Z,57.80
2017-06-11T07:13:41.322Z,57.50
2017-06-11T07:16:09.485Z,57.10
2017-06-11T07:18:37.653Z,57.00
2017-06-11T07:21:05.825Z,56.70
2017-06-11T07:23:37.982Z,57.50
2017-06-11T07:26:06.202Z,56.80
2017-06-11T07:28:34.373Z,56.50
2017-06-11T07:31:02.513Z,56.20
2017-06-11T07:33:30.685Z,55.60
2017-06-11T07:35:59.649Z,54.40
2017-06-11T07:38:27.797Z,54.40
2017-06-11T07:40:55.949Z,53.70
2017-06-11T07:43:24.153Z,53.60
2017-06-11T07:45:52.299Z,54.10
2017-06-11T07:48:20.460Z,52.90
2017-06-11T07:50:48.656Z,50.90
2017-06-11T07:53:16.801Z,50.30
2017-06-11T07:55:45.737Z,47.90
2017-06-11T07:58:13.924Z,47.90
2017-06-11T08:00:42.065Z,48.20
2017-06-11T08:03:10.237Z,47.60
2017-06-11T08:05:38.437Z,46.80
2017-06-11T08:08:06.594Z,45.70
2017-06-11T08:10:34.739Z,45.80
2017-06-11T08:13:02.916Z,43.30
2017-06-11T08:15:31.084Z,41.80
2017-06-11T08:17:59.229Z,40.90
2017-06-11T08:20:27.401Z,39.60
2017-06-11T08:22:55.558Z,39.20
2017-06-11T08:25:23.706Z,38.70
2017-06-11T08:27:51.882Z,39.00
2017-06-11T08:30:20.031Z,38.40
2017-06-11T08:32:48.967Z,34.70
2017-06-11T08:35:17.142Z,34.60
2017-06-11T08:37:45.285Z,34.80
2017-06-11T08:40:13.449Z,32.50
2017-06-11T08:42:42.391Z,30.00
2017-06-11T08:45:10.554Z,29.90
2017-06-11T08:47:38.716Z,28.90
2017-06-11T08:50:06.905Z,27.50
2017-06-11T08:52:35.069Z,28.80
2017-06-11T08:55:03.205Z,27.80
2017-06-11T08:57:32.169Z,28.00
2017-06-11T09:00:00.336Z,28.00
2017-06-11T09:02:28.483Z,27.90
2017-06-11T09:04:56.659Z,27.40
2017-06-11T09:07:24.816Z,26.40
2017-06-11T09:09:52.960Z,26.50
2017-06-11T09:12:21.924Z,27.80
2017-06-11T09:14:50.065Z,27.20
2017-06-11T09:17:18.235Z,26.80
2017-06-11T09:19:46.426Z,27.10
2017-06-11T09:22:14.566Z,27.50
2017-06-11T09:24:43.470Z,27.40
2017-06-11T09:27:11.646Z,27.40
2017-06-11T09:29:39.816Z,25.10
2017-06-11T09:32:07.980Z,26.10
2017-06-11T09:34:36.921Z,26.10
2017-06-11T09:37:05.063Z,26.00
2017-06-11T09:39:33.224Z,25.10
2017-06-11T09:42:02.157Z,25.10
2017-06-11T09:44:30.299Z,25.10
2017-06-11T09:46:58.449Z,25.20
2017-06-11T09:49:27.412Z,25.40
2017-06-11T09:51:55.558Z,25.20
2017-06-11T09:54:23.727Z,26.00
2017-06-11T09:56:51.917Z,25.70
2017-06-11T09:59:20.084Z,24.30
2017-06-11T10:01:48.254Z,24.60
2017-06-11T10:04:17.193Z,24.30
2017-06-11T10:06:45.354Z,24.30
2017-06-11T10:09:13.499Z,24.80
2017-06-11T10:11:41.700Z,23.70
2017-06-11T10:14:09.865Z,21.60
2017-06-11T10:16:38.028Z,23.10
2017-06-11T10:19:06.236Z,23.60
2017-06-11T10:21:34.404Z,23.90
2017-06-11T10:24:02.572Z,23.20
2017-06-11T10:26:30.768Z,23.90
2017-06-11T10:28:58.951Z,23.20
2017-06-11T10:31:27.117Z,23.20
2017-06-11T10:33:55.327Z,22.60
2017-06-11T10:36:24.252Z,21.60
2017-06-11T10:38:52.418Z,21.50
2017-06-11T10:41:20.595Z,21.90
2017-06-11T10:43:48.800Z,21.90
2017-06-11T10:46:16.960Z,21.60
2017-06-11T10:48:45.171Z,20.90
2017-06-11T10:51:13.892Z,20.40
2017-06-11T10:53:42.055Z,20.70
2017-06-11T10:56:10.250Z,21.40
2017-06-11T10:58:38.390Z,22.40
2017-06-11T11:01:06.557Z,24.30
2017-06-11T11:03:34.749Z,23.70
2017-06-11T11:06:02.913Z,23.20
2017-06-11T11:08:31.079Z,21.80
2017-06-11T11:10:59.266Z,21.80
2017-06-11T11:13:27.505Z,23.40
2017-06-11T11:15:55.645Z,24.10
2017-06-11T11:18:23.820Z,25.30
2017-06-11T11:20:51.961Z,26.40
2017-06-11T11:23:20.156Z,26.50
2017-06-11T11:25:48.345Z,25.30
2017-06-11T11:28:16.486Z,26.90
2017-06-11T11:30:44.630Z,29.20
2017-06-11T11:33:12.813Z,31.20
2017-06-11T11:35:40.969Z,30.60
2017-06-11T11:38:09.137Z,30.00
2017-06-11T11:40:37.347Z,30.60
2017-06-11T11:43:05.517Z,30.90
2017-06-11T11:45:33.658Z,32.40
2017-06-11T11:48:01.859Z,32.10
2017-06-11T11:50:30.023Z,33.10
2017-06-11T11:52:58.224Z,33.90
2017-06-11T11:55:26.420Z,34.00
2017-06-11T11:57:54.581Z,36.80
2017-06-11T12:00:22.720Z,36.40
2017-06-11T12:02:50.898Z,35.60
2017-06-11T12:05:19.060Z,36.70
2017-06-11T12:07:47.231Z,37.90
2017-06-11T12:10:15.421Z,38.30
2017-06-11T12:12:43.565Z,36.80
2017-06-11T12:15:11.714Z,37.00
2017-06-11T12:17:39.905Z,36.30
2017-06-11T12:20:08.073Z,34.70
2017-06-11T12:22:36.223Z,35.20
2017-06-11T12:25:04.405Z,36.90
2017-06-11T12:27:32.555Z,38.10
2017-06-11T12:30:00.731Z,38.80
2017-06-11T12:32:28.932Z,39.00
2017-06-11T12:34:57.099Z,40.00
2017-06-11T12:37:25.251Z,39.20
2017-06-11T12:39:53.449Z,40.10
2017-06-11T12:42:21.609Z,38.60
2017-06-11T12:44:49.772Z,38.30
2017-06-11T12:47:17.960Z,39.40
2017-06-11T12:49:46.151Z,39.20
2017-06-11T12:52:14.303Z,40.00
2017-06-11T12:54:42.488Z,37.20
2017-06-11T12:57:10.669Z,37.80
2017-06-11T12:59:38.810Z,39.00
2017-06-11T13:02:07.005Z,38.80
2017-06-11T13:04:35.167Z,38.70
2017-06-11T13:07:03.902Z,39.30
2017-06-11T13:09:32.861Z,38.00
2017-06-11T13:12:01.035Z,37.90
2017-06-11T13:14:29.182Z,38.50
2017-06-11T13:16:57.385Z,39.60
2017-06-11T13:19:25.553Z,39.90
2017-06-11T13:21:53.712Z,39.70
2017-06-11T13:24:21.885Z,39.20
2017-06-11T13:26:50.049Z,40.20
2017-06-11T13:29:18.200Z,39.60
2017-06-11T13:31:47.253Z,39.90
2017-06-11T13:34:15.424Z,39.20
2017-06-11T13:36:43.569Z,37.70
2017-06-11T13:39:11.754Z,38.20
2017-06-11T13:41:39.912Z,39.10
2017-06-11T13:44:08.075Z,39.40
2017-06-11T13:46:37.039Z,38.30
2017-06-11T13:49:05.205Z,38.20
2017-06-11T13:51:33.348Z,38.20
2017-06-11T13:54:01.665Z,38.20
2017-06-11T13:56:29.839Z,39.70
2017-06-11T13:58:57.987Z,38.10
2017-06-11T14:01:26.175Z,38.30
2017-06-11T14:03:54.322Z,37.40
2017-06-11T14:06:22.516Z,36.00
2017-06-11T14:08:51.102Z,35.80
2017-06-11T14:11:19.246Z,37.30
2017-06-11T14:13:47.397Z,38.40
2017-06-11T14:16:16.386Z,38.80
2017-06-11T14:18:45.317Z,39.90
2017-06-11T14:21:13.486Z,39.20
2017-06-11T14:23:41.661Z,38.30
2017-06-11T14:26:09.823Z,38.50
2017-06-11T14:28:37.990Z,38.20
2017-06-11T14:31:06.166Z,38.40
2017-06-11T14:33:34.343Z,37.80
2017-06-11T14:36:02.486Z,37.80
2017-06-11T14:38:30.689Z,38.20
2017-06-11T14:40:58.834Z,37.90
2017-06-11T14:43:26.977Z,38.40
2017-06-11T14:45:55.192Z,39.50
2017-06-11T14:48:23.360Z,38.20
2017-06-11T14:50:51.526Z,38.40
2017-06-11T14:53:19.764Z,38.60
2017-06-11T14:55:47.922Z,38.80
2017-06-11T14:58:16.092Z,38.90
2017-06-11T15:00:44.302Z,39.40
2017-06-11T15:03:12.453Z,38.90
2017-06-11T15:05:40.610Z,39.20
2017-06-11T15:08:08.798Z,38.60
2017-06-11T15:10:36.949Z,39.30
2017-06-11T15:13:05.885Z,39.60
2017-06-11T15:15:34.085Z,39.60
2017-06-11T15:18:02.242Z,39.40
2017-06-11T15:20:30.420Z,39.00
2017-06-11T15:22:58.821Z,39.40
2017-06-11T15:25:27.001Z,39.20
2017-06-11T15:27:55.180Z,40.40
2017-06-11T15:30:23.410Z,40.90
2017-06-11T15:32:51.569Z,41.90
2017-06-11T15:35:19.736Z,42.10
2017-06-11T15:37:47.938Z,42.40
2017-06-11T15:40:16.094Z,43.00
2017-06-11T15:42:44.292Z,44.10
2017-06-11T15:45:12.496Z,47.70
2017-06-11T15:47:40.717Z,50.40
2017-06-11T15:50:08.889Z,53.00
2017-06-11T15:52:37.065Z,55.00
2017-06-11T15:55:05.235Z,54.00
2017-06-11T15:57:33.386Z,54.20
2017-06-11T16:00:02.353Z,56.60
2017-06-11T16:02:30.520Z,56.50
2017-06-11T16:04:58.690Z,56.60
2017-06-11T16:07:26.880Z,56.40
2017-06-11T16:09:55.045Z,57.20
2017-06-11T16:12:23.190Z,56.50
2017-06-11T16:14:51.385Z,56.40
2017-06-11T16:17:19.529Z,56.10
2017-06-11T16:19:47.696Z,55.10
2017-06-11T16:22:15.899Z,55.70
2017-06-11T16:24:44.067Z,55.10
2017-06-11T16:27:12.243Z,53.90
2017-06-11T16:29:40.444Z,55.80
2017-06-11T16:32:08.607Z,56.10
2017-06-11T16:34:36.763Z,54.90
2017-06-11T16:37:04.939Z,55.30
2017-06-11T16:39:33.081Z,55.50
2017-06-11T16:42:01.990Z,53.80
2017-06-11T16:44:30.165Z,53.70
2017-06-11T16:46:58.333Z,54.30
2017-06-11T16:49:26.499Z,53.50
2017-06-11T16:51:55.442Z,53.70
2017-06-11T16:54:23.608Z,53.60
2017-06-11T16:56:51.778Z,52.60
2017-06-11T16:59:19.972Z,52.80
2017-06-11T17:01:48.116Z,53.50
2017-06-11T17:04:16.302Z,53.00
2017-06-11T17:06:44.531Z,53.40
2017-06-11T17:09:13.507Z,55.00
2017-06-11T17:11:41.658Z,55.00
2017-06-11T17:14:09.833Z,56.00
2017-06-11T17:16:38.004Z,57.70
2017-06-11T17:19:06.160Z,59.90
2017-06-11T17:21:34.348Z,63.80
2017-06-11T17:24:02.498Z,65.10
2017-06-11T17:26:30.642Z,66.80
2017-06-11T17:28:59.639Z,70.10
2017-06-11T17:31:27.797Z,70.10
2017-06-11T17:33:55.959Z,72.50
2017-06-11T17:36:24.207Z,75.70
2017-06-11T17:38:52.398Z,75.40
2017-06-11T17:41:20.547Z,78.00
2017-06-11T17:43:48.722Z,77.40
2017-06-11T17:46:16.897Z,81.10
2017-06-11T17:48:45.041Z,82.00
2017-06-11T17:51:14.013Z,83.80
2017-06-11T17:53:43.153Z,83.70
2017-06-11T17:56:11.321Z,83.80
2017-06-11T17:58:39.522Z,82.50
2017-06-11T18:01:07.803Z,83.80
2017-06-11T18:03:35.976Z,83.80
2017-06-11T18:06:04.181Z,83.40
2017-06-11T18:08:32.349Z,84.10
2017-06-11T18:11:00.525Z,84.40
2017-06-11T18:13:28.728Z,84.00
2017-06-11T18:15:56.891Z,84.20
2017-06-11T18:18:25.039Z,84.40
2017-06-11T18:20:53.233Z,86.60
2017-06-11T18:23:21.419Z,85.90
2017-06-11T18:25:49.611Z,85.60
2017-06-11T18:28:17.843Z,85.90
2017-06-11T18:30:46.009Z,86.20
2017-06-11T18:33:14.936Z,87.30
2017-06-11T18:35:43.153Z,87.30
2017-06-11T18:38:11.305Z,85.80
2017-06-11T18:40:39.467Z,86.10
2017-06-11T18:43:07.669Z,88.90
2017-06-11T18:45:35.929Z,87.30
2017-06-11T18:48:04.125Z,88.10
2017-06-11T18:50:32.318Z,86.20
2017-06-11T18:53:00.493Z,86.20
2017-06-11T18:55:28.641Z,87.10
2017-06-11T18:57:56.818Z,87.70
2017-06-11T19:00:24.985Z,88.30
2017-06-11T19:02:53.166Z,88.20
2017-06-11T19:05:21.430Z,87.40
2017-06-11T19:07:49.577Z,88.50
2017-06-11T19:10:17.741Z,86.60
2017-06-11T19:12:46.709Z,85.50
2017-06-11T19:15:14.896Z,85.50
2017-06-11T19:17:43.814Z,85.00
2017-06-11T19:20:12.025Z,85.00
2017-06-11T19:22:40.193Z,84.50
2017-06-11T19:25:08.361Z,85.40
2017-06-11T19:27:36.537Z,84.80
2017-06-11T19:30:04.682Z,84.10
2017-06-11T19:32:32.849Z,84.40
2017-06-11T19:35:02.896Z,83.20
2017-06-11T19:37:33.131Z,84.70
2017-06-11T19:40:04.211Z,84.80
2017-06-11T19:42:32.489Z,84.70
2017-06-11T19:45:00.653Z,84.60
2017-06-11T19:47:28.829Z,84.30
2017-06-11T19:49:56.970Z,84.80
2017-06-11T19:52:25.897Z,85.50
2017-06-11T19:54:54.093Z,84.70
2017-06-11T19:57:22.243Z,85.10
2017-06-11T19:59:50.387Z,86.30
2017-06-11T20:02:19.345Z,86.20
2017-06-11T20:04:47.490Z,86.20
2017-06-11T20:07:15.633Z,86.80
2017-06-11T20:09:44.591Z,87.10
2017-06-11T20:12:12.751Z,87.00
2017-06-11T20:14:40.919Z,88.10
2017-06-11T20:17:09.104Z,88.60
2017-06-11T20:19:37.269Z,87.80
2017-06-11T20:22:05.436Z,89.00
2017-06-11T20:24:33.672Z,89.60
2017-06-11T20:27:02.633Z,90.10
2017-06-11T20:29:30.792Z,90.10
2017-06-11T20:31:59.037Z,90.00
2017-06-11T20:34:27.182Z,89.90
2017-06-11T20:36:55.329Z,89.90
2017-06-11T20:39:23.505Z,90.10
2017-06-11T20:41:51.705Z,90.10
2017-06-11T20:44:20.643Z,90.40
2017-06-11T20:46:48.908Z,90.30
2017-06-11T20:49:17.057Z,90.40
2017-06-11T20:51:46.018Z,90.00
2017-06-11T20:54:14.192Z,90.00
2017-06-11T20:56:42.381Z,90.40
2017-06-11T20:59:10.530Z,90.30
2017-06-11T21:01:38.728Z,90.70
2017-06-11T21:04:06.885Z,90.80
2017-06-11T21:06:35.062Z,90.50
2017-06-11T21:09:03.256Z,90.60
2017-06-11T21:11:31.401Z,90.50
2017-06-11T21:13:59.550Z,90.70
2017-06-11T21:16:27.725Z,91.30
2017-06-11T21:18:55.873Z,90.90
2017-06-11T21:21:24.808Z,90.60
2017-06-11T21:23:53.005Z,90.60
2017-06-11T21:26:21.175Z,90.40
2017-06-11T21:28:49.348Z,90.60
2017-06-11T21:31:17.530Z,90.40
2017-06-11T21:33:45.708Z,90.20
2017-06-11T21:36:13.878Z,90.00
2017-06-11T21:38:42.104Z,90.00
2017-06-11T21:41:10.260Z,90.10
2017-06-11T21:43:39.188Z,90.40
2017-06-11T21:46:07.374Z,90.30
2017-06-11T21:48:35.536Z,90.20
2017-06-11T21:51:03.678Z,90.10
2017-06-11T21:53:32.662Z,90.00
2017-06-11T21:56:01.572Z,90.10
2017-06-11T21:58:29.736Z,90.10
2017-06-11T22:00:58.683Z,88.90
2017-06-11T22:03:26.826Z,88.90
2017-06-11T22:05:54.987Z,87.90
2017-06-11T22:08:23.929Z,87.60
2017-06-11T22:10:52.086Z,87.60
2017-06-11T22:13:20.244Z,87.70
2017-06-11T22:15:48.442Z,87.30
2017-06-11T22:18:16.604Z,87.00
2017-06-11T22:20:44.745Z,86.80
2017-06-11T22:23:13.709Z,87.10
2017-06-11T22:25:41.855Z,87.00
2017-06-11T22:28:10.002Z,87.10
2017-06-11T22:30:38.193Z,87.40
2017-06-11T22:33:06.360Z,87.10
2017-06-11T22:35:34.520Z,86.90
2017-06-11T22:38:02.689Z,87.40
2017-06-11T22:40:31.597Z,87.80
2017-06-11T22:42:59.759Z,87.70
2017-06-11T22:45:27.934Z,87.90
2017-06-11T22:47:56.081Z,88.00
2017-06-11T22:50:24.244Z,88.10
2017-06-11T22:52:52.436Z,87.90
2017-06-11T22:55:21.132Z,87.30
2017-06-11T22:57:50.057Z,87.50
2017-06-11T23:00:18.235Z,87.50
2017-06-11T23:02:46.401Z,87.50
2017-06-11T23:05:14.565Z,87.60
2017-06-11T23:07:42.749Z,87.60
2017-06-11T23:10:10.894Z,87.30
2017-06-11T23:12:39.806Z,86.40
2017-06-11T23:15:08.009Z,86.40
2017-06-11T23:17:36.168Z,86.80
2017-06-11T23:20:04.309Z,87.20
2017-06-11T23:22:32.486Z,87.00
2017-06-11T23:25:01.425Z,88.10
2017-06-11T23:27:29.569Z,88.00
2017-06-11T23:29:57.746Z,88.00
2017-06-11T23:32:25.898Z,88.00
2017-06-11T23:34:54.837Z,89.10
2017-06-11T23:37:23.020Z,89.10
2017-06-11T23:39:51.170Z,89.20
2017-06-11T23:42:19.343Z,88.70
2017-06-11T23:44:47.541Z,89.00
2017-06-11T23:47:15.709Z,88.80
2017-06-11T23:49:43.879Z,88.50
2017-06-11T23:52:12.070Z,89.00
2017-06-11T23:54:40.243Z,88.40
2017-06-11T23:57:08.401Z,88.70
2017-06-11T23:59:36.600Z,88.80
